Time;durP1;ratioP1;P1;durP2;ratioP2;P2;SDS_P1;SDS_P2;PMS_P1;PMS_P2;Temp;Humidity;BMP_temperature;BMP_pressure;BME280_temperature;BME280_humidity;BME280_pressure;Samples;Min_cycle;Max_cycle;Signal;HPM_P1;HPM_P2
2021/04/19 00:02:18;;;;;;;;;;;19.70;57.70;;;;;;5070957;28;1270;-70
2021/04/19 00:04:43;;;;;;;;;;;19.70;57.70;;;;;;5071144;28;1086;-70
2021/04/19 00:07:09;;;;;;;;;;;19.70;57.70;;;;;;5069393;28;1173;-70
2021/04/19 00:09:35;;;;;;;;;;;19.70;57.70;;;;;;5070972;28;1039;-70
2021/04/19 00:12:01;;;;;;;;;;;19.70;57.70;;;;;;5072314;28;1270;-70
2021/04/19 00:14:26;;;;;;;;;;;19.70;57.80;;;;;;5072174;28;1911;-70
2021/04/19 00:16:51;;;;;;;;;;;19.70;57.80;;;;;;5072143;28;1085;-70
2021/04/19 00:19:17;;;;;;;;;;;19.70;57.80;;;;;;5071908;28;1111;-70
2021/04/19 00:21:42;;;;;;;;;;;19.70;57.80;;;;;;5071847;28;1103;-70
2021/04/19 00:24:08;;;;;;;;;;;19.70;57.80;;;;;;5072134;28;1232;-70
2021/04/19 00:26:33;;;;;;;;;;;19.70;57.80;;;;;;5071946;28;1123;-70
2021/04/19 00:28:59;;;;;;;;;;;19.70;57.80;;;;;;5071817;28;1024;-70
2021/04/19 00:31:24;;;;;;;;;;;19.70;57.80;;;;;;5071995;28;1043;-70
2021/04/19 00:33:50;;;;;;;;;;;19.70;57.80;;;;;;5053996;28;1967;-70
2021/04/19 00:36:15;;;;;;;;;;;19.70;57.90;;;;;;5070553;28;1130;-70
2021/04/19 00:38:41;;;;;;;;;;;19.70;57.90;;;;;;5071471;28;1063;-70
2021/04/19 00:41:06;;;;;;;;;;;19.60;57.80;;;;;;5071597;28;1055;-70
2021/04/19 00:43:31;;;;;;;;;;;19.70;57.90;;;;;;5070441;28;1583;-70
2021/04/19 00:46:02;;;;;;;;;;;19.60;57.90;;;;;;5070581;28;1071;-70
2021/04/19 00:48:28;;;;;;;;;;;19.60;57.90;;;;;;5071760;28;1039;-70
2021/04/19 00:50:55;;;;;;;;;;;19.60;57.90;;;;;;5071681;28;1106;-70
2021/04/19 00:53:21;;;;;;;;;;;19.60;57.90;;;;;;5071656;28;1178;-70
2021/04/19 00:55:47;;;;;;;;;;;19.60;57.90;;;;;;5071693;28;1886;-70
2021/04/19 00:58:12;;;;;;;;;;;19.60;57.90;;;;;;5071488;28;1047;-70
2021/04/19 01:00:38;;;;;;;;;;;19.60;58.50;;;;;;5070380;28;1126;-70
2021/04/19 01:03:03;;;;;;;;;;;19.60;57.90;;;;;;5071756;28;1362;-70
2021/04/19 01:05:33;;;;;;;;;;;19.60;57.90;;;;;;5071415;28;1059;-70
2021/04/19 01:07:59;;;;;;;;;;;19.60;57.90;;;;;;5071313;28;1130;-70
2021/04/19 01:10:24;;;;;;;;;;;19.60;58.00;;;;;;5071400;28;1055;-70
2021/04/19 01:12:50;;;;;;;;;;;19.60;58.00;;;;;;5071676;28;1212;-70
2021/04/19 01:15:15;;;;;;;;;;;19.60;58.00;;;;;;5071151;28;1898;-70
2021/04/19 01:17:42;;;;;;;;;;;19.60;58.00;;;;;;5071105;28;976;-70
2021/04/19 01:20:08;;;;;;;;;;;19.60;58.00;;;;;;5069436;28;1495;-70
2021/04/19 01:22:33;;;;;;;;;;;19.60;58.00;;;;;;5065784;28;1376;-71
2021/04/19 01:24:59;;;;;;;;;;;19.60;58.00;;;;;;5066549;28;1282;-71
2021/04/19 01:27:24;;;;;;;;;;;19.60;58.00;;;;;;5064183;28;1231;-72
2021/04/19 01:29:50;;;;;;;;;;;19.60;58.00;;;;;;5064310;28;1239;-71
2021/04/19 01:32:15;;;;;;;;;;;19.60;58.00;;;;;;5064893;28;1383;-71
2021/04/19 01:34:40;;;;;;;;;;;19.60;58.10;;;;;;5080580;28;1906;-71
2021/04/19 01:37:06;;;;;;;;;;;19.60;58.00;;;;;;5063425;28;1203;-71
2021/04/19 01:39:31;;;;;;;;;;;19.60;58.10;;;;;;5079087;28;1357;-71
2021/04/19 01:41:57;;;;;;;;;;;19.60;58.10;;;;;;5064510;28;1282;-72
2021/04/19 01:44:22;;;;;;;;;;;19.60;58.00;;;;;;5065313;28;1364;-70
2021/04/19 01:46:48;;;;;;;;;;;19.60;58.00;;;;;;5072271;28;1059;-71
2021/04/19 01:49:13;;;;;;;;;;;19.60;58.00;;;;;;5070596;28;1075;-70
2021/04/19 01:51:39;;;;;;;;;;;19.60;58.00;;;;;;5072488;28;1086;-70
2021/04/19 01:54:04;;;;;;;;;;;19.60;57.90;;;;;;5074491;28;1898;-70
2021/04/19 01:56:29;;;;;;;;;;;19.60;57.90;;;;;;5075890;28;1063;-71
2021/04/19 01:58:56;;;;;;;;;;;19.60;57.90;;;;;;5075623;28;1178;-70
2021/04/19 02:01:21;;;;;;;;;;;19.60;57.80;;;;;;5075767;28;1138;-70
2021/04/19 02:03:50;;;;;;;;;;;19.60;57.80;;;;;;5074096;28;1264;-70
2021/04/19 02:06:34;;;;;;;;;;;19.60;57.80;;;;;;5074619;28;1208;-70
2021/04/19 02:09:09;;;;;;;;;;;19.60;57.70;;;;;;5075453;28;1158;-70
2021/04/19 02:11:34;;;;;;;;;;;19.60;57.70;;;;;;5075588;28;1134;-71
2021/04/19 02:14:26;;;;;;;;;;;19.70;57.80;;;;;;5075234;28;1906;-70
2021/04/19 02:16:55;;;;;;;;;;;19.70;57.70;;;;;;5066855;28;1226;-70
2021/04/19 02:19:24;;;;;;;;;;;19.70;57.70;;;;;;5073895;28;1166;-71
2021/04/19 02:21:54;;;;;;;;;;;19.70;57.70;;;;;;5075303;28;1051;-71
2021/04/19 02:24:21;;;;;;;;;;;19.70;57.70;;;;;;5075291;28;1256;-70
2021/04/19 02:26:56;;;;;;;;;;;19.70;57.70;;;;;;5074969;28;1339;-70
2021/04/19 02:29:51;;;;;;;;;;;19.70;57.70;;;;;;5073880;28;1122;-70
2021/04/19 02:32:19;;;;;;;;;;;19.70;57.70;;;;;;5070411;28;1309;-70
2021/04/19 02:34:45;;;;;;;;;;;19.70;57.70;;;;;;5073701;28;1957;-71
2021/04/19 02:37:10;;;;;;;;;;;19.70;57.60;;;;;;5073674;28;1009;-71
2021/04/19 02:39:42;;;;;;;;;;;19.70;57.50;;;;;;5073706;28;1083;-71
2021/04/19 02:42:08;;;;;;;;;;;19.70;57.50;;;;;;5075077;28;1275;-72
2021/04/19 02:44:34;;;;;;;;;;;19.80;57.40;;;;;;5073831;28;1139;-72
2021/04/19 02:46:59;;;;;;;;;;;19.90;57.40;;;;;;5073719;28;1067;-70
2021/04/19 02:49:30;;;;;;;;;;;20.00;57.30;;;;;;5074648;28;1110;-70
2021/04/19 02:51:55;;;;;;;;;;;20.10;57.00;;;;;;5074640;28;1142;-70
2021/04/19 02:54:21;;;;;;;;;;;20.20;56.80;;;;;;5073363;28;1922;-70
2021/04/19 02:56:47;;;;;;;;;;;20.30;56.60;;;;;;5074844;28;1126;-70
2021/04/19 02:59:13;;;;;;;;;;;20.40;56.40;;;;;;5073292;28;1356;-70
2021/04/19 03:01:39;;;;;;;;;;;20.50;56.20;;;;;;5074683;28;1110;-71
2021/04/19 03:04:09;;;;;;;;;;;20.60;56.00;;;;;;5073070;28;1286;-71
2021/04/19 03:06:35;;;;;;;;;;;20.70;55.80;;;;;;5073197;28;1233;-71
2021/04/19 03:09:01;;;;;;;;;;;20.70;55.60;;;;;;5072955;28;1201;-71
2021/04/19 03:11:32;;;;;;;;;;;20.80;55.50;;;;;;5073419;28;1132;-71
2021/04/19 03:13:58;;;;;;;;;;;20.80;55.30;;;;;;5073688;28;1905;-71
2021/04/19 03:16:24;;;;;;;;;;;20.90;55.20;;;;;;5073293;28;1130;-70
2021/04/19 03:18:50;;;;;;;;;;;20.90;55.10;;;;;;5072490;28;1130;-70
2021/04/19 03:21:18;;;;;;;;;;;21.00;55.00;;;;;;5073030;28;1032;-69
2021/04/19 03:23:48;;;;;;;;;;;21.00;54.90;;;;;;5074118;28;1229;-70
2021/04/19 03:26:13;;;;;;;;;;;21.00;54.80;;;;;;5072794;28;1261;-71
2021/04/19 03:28:39;;;;;;;;;;;21.10;54.70;;;;;;5073114;28;1075;-71
2021/04/19 03:31:06;;;;;;;;;;;21.10;54.70;;;;;;5073925;28;1158;-71
2021/04/19 03:33:32;;;;;;;;;;;21.20;54.70;;;;;;5072600;28;1228;-71
2021/04/19 03:35:57;;;;;;;;;;;21.20;54.70;;;;;;5072703;28;1898;-72
2021/04/19 03:38:23;;;;;;;;;;;21.20;54.60;;;;;;5072526;28;1114;-71
2021/04/19 03:40:49;;;;;;;;;;;21.20;54.60;;;;;;5073808;28;1067;-71
2021/04/19 03:43:15;;;;;;;;;;;21.20;54.60;;;;;;5055894;28;1302;-71
2021/04/19 03:45:40;;;;;;;;;;;21.20;54.60;;;;;;5072420;28;1083;-71
2021/04/19 03:48:15;;;;;;;;;;;21.20;54.50;;;;;;5073789;28;1153;-71
2021/04/19 03:50:45;;;;;;;;;;;21.20;54.50;;;;;;5072503;28;1059;-70
2021/04/19 03:53:10;;;;;;;;;;;21.20;54.50;;;;;;5073640;28;1288;-69
2021/04/19 03:55:36;;;;;;;;;;;21.20;54.50;;;;;;5072218;28;1947;-69
2021/04/19 03:58:01;;;;;;;;;;;21.20;54.60;;;;;;5071978;28;1071;-70
2021/04/19 04:00:27;;;;;;;;;;;21.20;54.60;;;;;;5071976;28;1524;-69
2021/04/19 04:02:53;;;;;;;;;;;21.20;54.60;;;;;;5067618;22;2352;-65
2021/04/19 04:05:18;;;;;;;;;;;21.20;54.60;;;;;;5027370;28;1531;-66
2021/04/19 04:07:44;;;;;;;;;;;21.20;54.70;;;;;;5032162;28;1364;-66
2021/04/19 04:10:09;;;;;;;;;;;21.20;54.70;;;;;;5033675;28;1743;-65
2021/04/19 04:12:36;;;;;;;;;;;21.20;54.70;;;;;;5030381;28;1468;-66
2021/04/19 04:15:01;;;;;;;;;;;21.20;54.80;;;;;;5012854;28;1963;-66
2021/04/19 04:17:27;;;;;;;;;;;21.20;54.80;;;;;;5013518;28;1354;-66
2021/04/19 04:19:52;;;;;;;;;;;21.10;54.80;;;;;;5012321;28;1277;-67
2021/04/19 04:22:18;;;;;;;;;;;21.10;54.80;;;;;;4996129;28;1628;-65
2021/04/19 04:24:43;;;;;;;;;;;21.10;54.90;;;;;;5013758;28;1848;-66
2021/04/19 04:27:09;;;;;;;;;;;21.10;54.90;;;;;;5024190;28;1675;-66
2021/04/19 04:29:34;;;;;;;;;;;21.10;55.00;;;;;;5013578;28;1469;-65
2021/04/19 04:32:00;;;;;;;;;;;21.10;55.00;;;;;;5012228;28;1693;-68
2021/04/19 04:34:25;;;;;;;;;;;21.10;55.10;;;;;;5013352;28;1949;-67
2021/04/19 04:36:50;;;;;;;;;;;21.00;55.10;;;;;;5012277;28;1620;-67
2021/04/19 04:39:16;;;;;;;;;;;21.00;55.10;;;;;;5013306;28;1590;-67
2021/04/19 04:41:41;;;;;;;;;;;21.00;55.20;;;;;;5013419;28;1685;-67
2021/04/19 04:44:07;;;;;;;;;;;21.00;55.20;;;;;;5012071;28;1449;-68
2021/04/19 04:46:34;;;;;;;;;;;20.90;55.30;;;;;;5013255;28;1268;-69
2021/04/19 04:49:01;;;;;;;;;;;20.90;55.30;;;;;;5011881;28;1397;-69
2021/04/19 04:51:26;;;;;;;;;;;20.90;55.30;;;;;;5013371;28;1463;-69
2021/04/19 04:53:53;;;;;;;;;;;20.90;55.40;;;;;;5011939;28;1887;-69
2021/04/19 04:56:19;;;;;;;;;;;20.90;55.40;;;;;;5012218;28;1706;-69
2021/04/19 04:58:44;;;;;;;;;;;20.90;55.40;;;;;;5012793;28;1374;-68
2021/04/19 05:01:10;;;;;;;;;;;20.90;55.50;;;;;;5011957;28;1379;-68
2021/04/19 05:03:36;;;;;;;;;;;20.90;55.50;;;;;;5011918;28;1584;-70
2021/04/19 05:06:02;;;;;;;;;;;20.80;55.50;;;;;;5020138;28;1565;-70
2021/04/19 05:08:27;;;;;;;;;;;20.90;55.50;;;;;;5016745;28;1410;-68
2021/04/19 05:10:55;;;;;;;;;;;20.80;55.60;;;;;;5012500;28;1379;-68
2021/04/19 05:13:21;;;;;;;;;;;20.80;55.50;;;;;;5012669;28;1398;-68
2021/04/19 05:15:47;;;;;;;;;;;20.90;55.60;;;;;;5011651;28;1902;-68
2021/04/19 05:18:13;;;;;;;;;;;20.90;55.50;;;;;;5012761;28;1425;-68
2021/04/19 05:20:39;;;;;;;;;;;20.90;55.50;;;;;;5011998;28;1669;-68
2021/04/19 05:23:05;;;;;;;;;;;20.90;55.50;;;;;;4995363;28;1543;-68
2021/04/19 05:25:30;;;;;;;;;;;20.90;55.40;;;;;;5019524;28;1398;-68
2021/04/19 05:27:58;;;;;;;;;;;20.90;55.40;;;;;;5021569;28;1386;-68
2021/04/19 05:30:24;;;;;;;;;;;21.00;55.40;;;;;;5015273;28;1697;-68
2021/04/19 05:32:49;;;;;;;;;;;21.00;55.40;;;;;;4999119;28;1579;-67
2021/04/19 05:35:16;;;;;;;;;;;21.00;55.40;;;;;;5015585;28;1906;-69
2021/04/19 05:37:41;;;;;;;;;;;21.00;55.40;;;;;;5016634;28;1344;-66
2021/04/19 05:40:07;;;;;;;;;;;21.00;55.40;;;;;;5015518;28;1379;-67
2021/04/19 05:42:32;;;;;;;;;;;21.00;55.40;;;;;;5016398;28;1668;-67
2021/04/19 05:44:58;;;;;;;;;;;20.90;55.40;;;;;;5015349;28;1674;-67
2021/04/19 05:47:23;;;;;;;;;;;20.90;55.40;;;;;;4998633;28;1660;-67
2021/04/19 05:49:49;;;;;;;;;;;20.90;55.40;;;;;;5015519;28;1370;-68
2021/04/19 05:52:17;;;;;;;;;;;21.00;55.50;;;;;;5016523;28;1636;-67
2021/04/19 05:54:42;;;;;;;;;;;20.90;55.40;;;;;;5016276;28;1894;-67
2021/04/19 05:57:08;;;;;;;;;;;20.90;55.50;;;;;;4998484;28;1607;-68
2021/04/19 05:59:51;;;;;;;;;;;20.90;55.50;;;;;;5016341;28;1372;-68
2021/04/19 06:02:23;;;;;;;;;;;20.90;55.50;;;;;;5015117;28;1588;-68
2021/04/19 06:04:50;;;;;;;;;;;20.90;55.60;;;;;;5015103;28;1398;-69
2021/04/19 06:07:17;;;;;;;;;;;20.80;55.60;;;;;;5027878;28;1465;-69
2021/04/19 06:09:54;;;;;;;;;;;20.80;55.60;;;;;;5016180;28;1714;-68
2021/04/19 06:12:21;;;;;;;;;;;20.80;55.60;;;;;;5016086;28;1537;-68
2021/04/19 06:14:46;;;;;;;;;;;20.80;55.60;;;;;;5014924;28;1914;-68
2021/04/19 06:17:13;;;;;;;;;;;20.80;55.70;;;;;;5014505;28;1461;-68
2021/04/19 06:19:39;;;;;;;;;;;20.80;55.70;;;;;;5016089;28;1653;-68
2021/04/19 06:22:05;;;;;;;;;;;20.80;55.80;;;;;;5014648;28;1639;-68
2021/04/19 06:24:30;;;;;;;;;;;20.80;55.80;;;;;;5015764;28;1602;-68
2021/04/19 06:26:55;;;;;;;;;;;20.80;55.80;;;;;;5027584;28;1697;-67
2021/04/19 06:29:24;;;;;;;;;;;20.80;55.90;;;;;;5014481;28;1691;-68
2021/04/19 06:31:50;;;;;;;;;;;20.80;55.90;;;;;;5015782;28;1560;-67
2021/04/19 06:34:17;;;;;;;;;;;20.80;56.50;;;;;;5014309;28;1977;-67
2021/04/19 06:36:43;;;;;;;;;;;20.70;55.90;;;;;;5015603;28;1084;-68
2021/04/19 06:39:09;;;;;;;;;;;20.70;55.90;;;;;;5006426;28;1677;-65
2021/04/19 06:41:35;;;;;;;;;;;20.70;56.00;;;;;;5025226;28;2250;-67
2021/04/19 06:44:01;;;;;;;;;;;20.70;56.00;;;;;;5030678;28;1718;-66
2021/04/19 06:46:26;;;;;;;;;;;20.70;56.10;;;;;;5014112;28;1453;-67
2021/04/19 06:48:52;;;;;;;;;;;20.70;56.10;;;;;;5026960;28;1085;-66
2021/04/19 06:51:17;;;;;;;;;;;20.70;56.10;;;;;;5015390;28;1707;-64
2021/04/19 06:53:43;;;;;;;;;;;20.60;56.10;;;;;;5013835;28;1376;-65
2021/04/19 06:56:08;;;;;;;;;;;20.60;56.10;;;;;;5014978;28;1890;-65
2021/04/19 06:58:34;;;;;;;;;;;20.60;56.20;;;;;;5013606;28;1372;-69
2021/04/19 07:01:00;;;;;;;;;;;20.60;56.20;;;;;;5015115;28;1754;-68
2021/04/19 07:03:25;;;;;;;;;;;20.60;56.20;;;;;;5013813;28;1390;-68
2021/04/19 07:05:51;;;;;;;;;;;20.60;56.30;;;;;;5020571;28;1725;-67
2021/04/19 07:08:20;;;;;;;;;;;20.60;56.30;;;;;;5021087;28;1697;-68
2021/04/19 07:10:45;;;;;;;;;;;20.60;56.30;;;;;;5013647;28;1591;-69
2021/04/19 07:13:11;;;;;;;;;;;20.50;56.30;;;;;;5013667;28;1586;-69
2021/04/19 07:15:37;;;;;;;;;;;20.50;56.30;;;;;;5013584;28;1898;-69
2021/04/19 07:18:03;;;;;;;;;;;20.50;56.30;;;;;;5013411;28;1592;-68
2021/04/19 07:20:28;;;;;;;;;;;20.50;56.30;;;;;;5014725;28;1285;-68
2021/04/19 07:22:53;;;;;;;;;;;20.50;56.30;;;;;;5013575;28;1658;-68
2021/04/19 07:25:19;;;;;;;;;;;20.50;56.40;;;;;;5020867;28;1173;-68
2021/04/19 07:27:44;;;;;;;;;;;20.50;56.40;;;;;;5020797;28;1340;-68
2021/04/19 07:30:10;;;;;;;;;;;20.50;56.40;;;;;;5013455;28;1646;-68
2021/04/19 07:32:36;;;;;;;;;;;20.50;56.40;;;;;;5013216;28;1661;-68
2021/04/19 07:35:02;;;;;;;;;;;20.50;56.40;;;;;;5013173;28;2032;-67
2021/04/19 07:37:28;;;;;;;;;;;20.40;56.40;;;;;;5014118;28;1354;-68
2021/04/19 07:39:55;;;;;;;;;;;20.40;56.40;;;;;;5014518;28;1790;-67
2021/04/19 07:42:21;;;;;;;;;;;20.40;56.50;;;;;;5014375;28;1670;-67
2021/04/19 07:44:50;;;;;;;;;;;20.40;56.50;;;;;;5014276;28;1388;-66
2021/04/19 07:47:21;;;;;;;;;;;20.40;56.50;;;;;;5012789;28;1391;-67
2021/04/19 07:50:06;;;;;;;;;;;20.40;56.60;;;;;;5014288;28;1342;-67
2021/04/19 07:52:32;;;;;;;;;;;20.40;56.60;;;;;;5014612;28;1290;-69
2021/04/19 07:55:13;;;;;;;;;;;20.40;56.60;;;;;;5014210;28;1902;-68
2021/04/19 07:57:39;;;;;;;;;;;20.40;56.60;;;;;;5013816;28;1432;-68
2021/04/19 08:00:05;;;;;;;;;;;20.40;56.60;;;;;;5014266;28;1569;-68
2021/04/19 08:02:30;;;;;;;;;;;20.40;56.70;;;;;;5012752;28;1673;-68
2021/04/19 08:04:56;;;;;;;;;;;20.40;56.70;;;;;;5012915;28;1644;-67
2021/04/19 08:07:22;;;;;;;;;;;20.40;56.70;;;;;;5026779;28;1372;-68
2021/04/19 08:09:54;;;;;;;;;;;20.40;56.70;;;;;;5012817;28;1314;-68
2021/04/19 08:12:30;;;;;;;;;;;20.40;56.80;;;;;;5013894;28;1576;-68
2021/04/19 08:14:55;;;;;;;;;;;20.30;56.80;;;;;;5026928;28;1957;-67
2021/04/19 08:17:21;;;;;;;;;;;20.30;56.80;;;;;;5013472;28;1393;-67
2021/04/19 08:19:47;;;;;;;;;;;20.30;56.80;;;;;;5012537;28;1462;-69
2021/04/19 08:22:13;;;;;;;;;;;20.30;56.80;;;;;;5013414;28;1425;-68
2021/04/19 08:24:39;;;;;;;;;;;20.30;56.80;;;;;;5013822;28;1444;-70
2021/04/19 08:27:04;;;;;;;;;;;20.30;56.80;;;;;;5024502;28;1435;-66
2021/04/19 08:29:43;;;;;;;;;;;20.30;56.90;;;;;;5012852;28;1616;-70
2021/04/19 08:32:08;;;;;;;;;;;20.30;56.90;;;;;;5012353;28;1581;-68
2021/04/19 08:34:35;;;;;;;;;;;20.30;57.20;;;;;;5013468;28;1890;-68
2021/04/19 08:37:01;;;;;;;;;;;20.30;57.00;;;;;;5012117;28;1607;-68
2021/04/19 08:39:26;;;;;;;;;;;20.30;56.90;;;;;;5012114;28;1411;-67
2021/04/19 08:41:52;;;;;;;;;;;20.30;57.00;;;;;;5012084;28;1567;-68
2021/04/19 08:44:17;;;;;;;;;;;20.20;56.90;;;;;;5013188;28;1553;-68
2021/04/19 08:46:42;;;;;;;;;;;20.30;57.00;;;;;;5011719;28;1617;-67
2021/04/19 08:49:09;;;;;;;;;;;20.30;57.00;;;;;;5010848;28;1596;-68
2021/04/19 08:51:34;;;;;;;;;;;20.20;57.00;;;;;;5011958;28;1606;-68
2021/04/19 08:53:59;;;;;;;;;;;20.20;57.00;;;;;;5013016;28;1956;-69
2021/04/19 08:56:25;;;;;;;;;;;20.20;57.00;;;;;;5011873;28;1404;-67
2021/04/19 08:58:50;;;;;;;;;;;20.20;57.00;;;;;;5012940;28;1644;-69
2021/04/19 09:01:16;;;;;;;;;;;20.20;57.00;;;;;;5016330;28;1368;-68
2021/04/19 09:03:41;;;;;;;;;;;20.20;57.00;;;;;;5018267;28;1663;-68
2021/04/19 09:06:16;;;;;;;;;;;20.20;57.10;;;;;;5028390;28;1191;-69
2021/04/19 09:08:41;;;;;;;;;;;20.20;57.10;;;;;;5022552;28;1492;-69
2021/04/19 09:11:07;;;;;;;;;;;20.20;57.10;;;;;;5019527;28;1590;-70
2021/04/19 09:13:36;;;;;;;;;;;20.20;57.20;;;;;;5018600;28;1694;-71
2021/04/19 09:16:22;;;;;;;;;;;20.20;57.10;;;;;;5018393;28;1969;-68
2021/04/19 09:18:54;;;;;;;;;;;20.20;57.20;;;;;;5019090;28;1667;-69
2021/04/19 09:21:38;;;;;;;;;;;20.10;57.10;;;;;;5019583;28;1591;-68
2021/04/19 09:24:04;;;;;;;;;;;20.20;57.20;;;;;;5019713;28;1531;-69
2021/04/19 09:26:45;;;;;;;;;;;20.20;57.20;;;;;;5032201;28;1666;-69
2021/04/19 09:29:11;;;;;;;;;;;20.20;57.20;;;;;;5017821;28;1127;-68
2021/04/19 09:31:55;;;;;;;;;;;20.10;57.20;;;;;;5017824;28;1645;-68
2021/04/19 09:34:35;;;;;;;;;;;20.10;57.20;;;;;;5019303;28;1886;-69
2021/04/19 09:37:00;;;;;;;;;;;20.10;57.20;;;;;;5019522;28;1498;-67
2021/04/19 09:39:45;;;;;;;;;;;20.10;57.20;;;;;;5017855;28;1363;-67
2021/04/19 09:42:10;;;;;;;;;;;20.10;57.20;;;;;;5019268;28;1384;-67
2021/04/19 09:44:47;;;;;;;;;;;20.10;57.30;;;;;;5018523;28;1708;-65
2021/04/19 09:47:31;;;;;;;;;;;20.10;57.30;;;;;;5019316;28;1653;-65
2021/04/19 09:49:56;;;;;;;;;;;20.10;57.30;;;;;;5018265;28;1409;-65
2021/04/19 09:52:22;;;;;;;;;;;20.10;57.30;;;;;;5017902;28;1394;-65
2021/04/19 09:54:50;;;;;;;;;;;20.10;57.30;;;;;;5018021;28;1968;-66
2021/04/19 09:57:16;;;;;;;;;;;20.10;57.30;;;;;;5014986;28;1740;-66
2021/04/19 09:59:41;;;;;;;;;;;20.10;57.30;;;;;;5018762;28;1173;-67
2021/04/19 10:02:07;;;;;;;;;;;20.10;57.30;;;;;;5019007;28;1575;-66
2021/04/19 10:04:33;;;;;;;;;;;20.10;57.30;;;;;;5063617;22;3839;-70
2021/04/19 10:07:00;;;;;;;;;;;20.10;57.40;;;;;;5056157;28;1376;-70
2021/04/19 10:09:26;;;;;;;;;;;20.10;57.30;;;;;;5056107;28;1170;-70
2021/04/19 10:12:10;;;;;;;;;;;20.10;57.30;;;;;;5055121;28;1228;-70
2021/04/19 10:14:36;;;;;;;;;;;20.10;57.30;;;;;;5036758;28;1914;-70
2021/04/19 10:17:11;;;;;;;;;;;20.00;57.30;;;;;;5032976;28;1682;-69
2021/04/19 10:19:36;;;;;;;;;;;20.00;57.30;;;;;;5031001;28;2206;-69
2021/04/19 10:22:04;;;;;;;;;;;20.10;57.30;;;;;;5034100;28;1293;-69
2021/04/19 10:24:29;;;;;;;;;;;20.00;57.30;;;;;;5033005;28;1519;-69
2021/04/19 10:26:54;;;;;;;;;;;20.00;57.30;;;;;;5020978;28;1644;-69
2021/04/19 10:29:20;;;;;;;;;;;20.10;57.40;;;;;;5049139;28;1154;-69
2021/04/19 10:31:47;;;;;;;;;;;20.00;57.30;;;;;;5049479;28;1746;-69
2021/04/19 10:34:12;;;;;;;;;;;20.00;57.30;;;;;;5049289;28;1926;-69
2021/04/19 10:36:41;;;;;;;;;;;20.00;57.30;;;;;;5044135;28;1872;-69
2021/04/19 10:39:10;;;;;;;;;;;20.10;57.40;;;;;;5027927;28;1180;-71
2021/04/19 10:41:36;;;;;;;;;;;20.10;57.40;;;;;;5048845;28;1362;-69
2021/04/19 10:44:02;;;;;;;;;;;20.00;57.30;;;;;;5049228;28;1336;-69
2021/04/19 10:46:28;;;;;;;;;;;20.00;57.30;;;;;;5049115;28;1495;-72
2021/04/19 10:48:55;;;;;;;;;;;20.10;57.40;;;;;;5033410;28;1346;-69
2021/04/19 10:51:22;;;;;;;;;;;20.00;57.40;;;;;;5029017;28;1418;-69
2021/04/19 10:53:51;;;;;;;;;;;20.00;57.30;;;;;;5041927;28;1362;-70
2021/04/19 10:56:25;;;;;;;;;;;20.00;57.40;;;;;;5048491;28;1898;-70
2021/04/19 10:58:51;;;;;;;;;;;20.00;57.40;;;;;;5047793;28;1463;-70
2021/04/19 11:01:20;;;;;;;;;;;20.00;57.30;;;;;;5048888;28;1404;-71
2021/04/19 11:03:46;;;;;;;;;;;20.00;57.30;;;;;;5032162;28;1459;-71
2021/04/19 11:06:11;;;;;;;;;;;20.00;57.40;;;;;;5033544;28;1205;-71
2021/04/19 11:08:56;;;;;;;;;;;20.00;57.30;;;;;;5031975;28;1420;-71
2021/04/19 11:11:29;;;;;;;;;;;20.00;57.30;;;;;;5033447;28;1142;-72
2021/04/19 11:14:05;;;;;;;;;;;20.00;57.40;;;;;;5018764;28;1281;-71
2021/04/19 11:16:31;;;;;;;;;;;20.00;57.40;;;;;;5048668;28;1107;-71
2021/04/19 11:18:56;;;;;;;;;;;20.00;57.30;;;;;;5018834;28;2021;-72
2021/04/19 11:21:34;;;;;;;;;;;20.00;57.40;;;;;;5031667;28;1400;-71
2021/04/19 11:24:04;;;;;;;;;;;20.00;57.40;;;;;;5024796;28;1623;-71
2021/04/19 11:26:33;;;;;;;;;;;20.00;57.40;;;;;;5032913;28;1422;-73
2021/04/19 11:28:58;;;;;;;;;;;20.00;57.40;;;;;;5048162;28;875;-72
2021/04/19 11:31:24;;;;;;;;;;;20.00;57.40;;;;;;5046727;28;1276;-73
2021/04/19 11:34:09;;;;;;;;;;;20.00;57.40;;;;;;5043782;28;1357;-72
2021/04/19 11:36:35;;;;;;;;;;;20.00;57.40;;;;;;5045124;28;1454;-72
2021/04/19 11:39:10;;;;;;;;;;;20.00;57.40;;;;;;5032763;28;1174;-71
2021/04/19 11:41:36;;;;;;;;;;;20.00;57.40;;;;;;5028556;28;764;-71
2021/04/19 11:44:01;;;;;;;;;;;20.00;57.40;;;;;;5051578;28;1579;-71
2021/04/19 11:46:27;;;;;;;;;;;20.00;57.40;;;;;;5042332;28;1185;-71
2021/04/19 11:48:52;;;;;;;;;;;20.00;57.40;;;;;;5032719;28;1815;-72
2021/04/19 11:51:18;;;;;;;;;;;20.00;57.40;;;;;;5036646;28;1440;-71
2021/04/19 11:53:44;;;;;;;;;;;20.00;57.40;;;;;;5031451;28;1626;-71
2021/04/19 11:56:10;;;;;;;;;;;20.00;57.40;;;;;;5048175;28;1969;-71
2021/04/19 11:58:42;;;;;;;;;;;20.00;57.40;;;;;;5046570;28;1214;-70
2021/04/19 12:01:08;;;;;;;;;;;20.00;57.40;;;;;;5032068;28;1310;-71
2021/04/19 12:03:33;;;;;;;;;;;20.00;57.40;;;;;;5029522;28;1290;-71
2021/04/19 12:06:01;;;;;;;;;;;20.00;57.40;;;;;;5030976;28;2127;-70
2021/04/19 12:08:26;;;;;;;;;;;20.00;57.40;;;;;;5045778;28;1211;-71
2021/04/19 12:10:51;;;;;;;;;;;20.00;57.40;;;;;;5051566;28;1418;-71
2021/04/19 12:13:17;;;;;;;;;;;20.10;57.30;;;;;;5050511;28;1392;-71
2021/04/19 12:15:42;;;;;;;;;;;20.10;57.20;;;;;;5047674;28;1906;-71
2021/04/19 12:18:08;;;;;;;;;;;20.20;57.10;;;;;;5031631;28;1140;-72
2021/04/19 12:20:34;;;;;;;;;;;20.30;57.00;;;;;;5029675;28;1441;-72
2021/04/19 12:22:59;;;;;;;;;;;20.40;56.80;;;;;;5028873;28;1387;-72
2021/04/19 12:25:25;;;;;;;;;;;20.40;56.60;;;;;;5028941;28;1417;-72
2021/04/19 12:27:50;;;;;;;;;;;20.50;56.40;;;;;;5029146;28;1231;-72
2021/04/19 12:30:16;;;;;;;;;;;20.50;56.20;;;;;;5030161;28;1225;-72
2021/04/19 12:32:41;;;;;;;;;;;20.60;56.10;;;;;;5029159;28;1456;-72
2021/04/19 12:35:07;;;;;;;;;;;20.70;56.00;;;;;;5030555;28;1902;-72
2021/04/19 12:37:32;;;;;;;;;;;20.70;55.90;;;;;;5029886;28;1165;-71
2021/04/19 12:39:58;;;;;;;;;;;20.80;55.80;;;;;;5030177;28;1239;-70
2021/04/19 12:42:23;;;;;;;;;;;20.80;55.70;;;;;;5029748;28;1961;-71
2021/04/19 12:44:48;;;;;;;;;;;20.80;55.60;;;;;;5034311;28;1623;-72
2021/04/19 12:47:14;;;;;;;;;;;20.90;55.60;;;;;;5024087;28;1384;-70
2021/04/19 12:49:39;;;;;;;;;;;20.90;55.50;;;;;;5036811;28;1128;-69
2021/04/19 12:52:05;;;;;;;;;;;20.90;55.40;;;;;;5022518;28;1378;-70
2021/04/19 12:54:30;;;;;;;;;;;20.90;55.40;;;;;;5035995;28;1889;-70
2021/04/19 12:56:56;;;;;;;;;;;20.90;55.30;;;;;;5048716;28;1385;-71
2021/04/19 12:59:21;;;;;;;;;;;21.00;55.30;;;;;;5037703;28;1172;-70
2021/04/19 13:01:47;;;;;;;;;;;21.00;55.30;;;;;;5051532;28;1419;-70
2021/04/19 13:04:16;;;;;;;;;;;21.00;55.30;;;;;;5050364;28;1511;-70
2021/04/19 13:06:41;;;;;;;;;;;21.00;55.20;;;;;;5035056;28;1769;-70
2021/04/19 13:09:07;;;;;;;;;;;21.00;55.20;;;;;;5029072;28;1104;-70
2021/04/19 13:11:32;;;;;;;;;;;21.10;55.20;;;;;;5029808;28;1403;-70
2021/04/19 13:13:58;;;;;;;;;;;21.10;55.20;;;;;;5029911;28;1397;-69
2021/04/19 13:16:24;;;;;;;;;;;21.10;55.20;;;;;;5030108;28;1955;-69
2021/04/19 13:18:49;;;;;;;;;;;21.10;55.20;;;;;;5027916;28;1306;-70
2021/04/19 13:21:15;;;;;;;;;;;21.10;55.20;;;;;;5031559;28;1326;-70
2021/04/19 13:23:40;;;;;;;;;;;21.10;55.20;;;;;;5031104;28;1531;-70
2021/04/19 13:26:06;;;;;;;;;;;21.10;55.20;;;;;;5013532;28;1102;-69
2021/04/19 13:28:31;;;;;;;;;;;21.10;55.10;;;;;;5029927;28;1296;-69
2021/04/19 13:30:56;;;;;;;;;;;21.10;55.10;;;;;;5046756;28;1063;-72
2021/04/19 13:33:22;;;;;;;;;;;21.10;55.20;;;;;;5029732;28;1265;-71
2021/04/19 13:35:47;;;;;;;;;;;21.10;55.50;;;;;;5030595;28;1894;-70
2021/04/19 13:38:13;;;;;;;;;;;21.10;55.20;;;;;;5030558;28;1044;-70
2021/04/19 13:40:38;;;;;;;;;;;21.10;55.20;;;;;;5030555;28;1867;-71
2021/04/19 13:43:04;;;;;;;;;;;21.10;55.20;;;;;;5028171;28;1304;-71
2021/04/19 13:45:29;;;;;;;;;;;21.10;55.20;;;;;;5029844;28;1188;-71
2021/04/19 13:47:55;;;;;;;;;;;21.10;55.20;;;;;;5033138;28;1130;-71
2021/04/19 13:50:21;;;;;;;;;;;21.10;55.20;;;;;;5050076;28;1080;-70
2021/04/19 13:52:47;;;;;;;;;;;21.10;55.30;;;;;;5046146;28;1837;-71
2021/04/19 13:55:12;;;;;;;;;;;21.10;55.20;;;;;;5033015;28;1906;-70
2021/04/19 13:57:41;;;;;;;;;;;21.10;55.20;;;;;;5033696;28;1159;-72
2021/04/19 14:00:07;;;;;;;;;;;21.10;55.20;;;;;;5046319;28;1113;-71
2021/04/19 14:02:32;;;;;;;;;;;21.10;55.30;;;;;;5053435;28;1684;-71
2021/04/19 14:04:57;;;;;;;;;;;21.10;55.30;;;;;;5054534;28;1202;-72
2021/04/19 14:07:23;;;;;;;;;;;21.10;55.30;;;;;;5034011;28;1559;-71
2021/04/19 14:09:48;;;;;;;;;;;21.10;55.30;;;;;;5033538;28;1215;-71
2021/04/19 14:12:14;;;;;;;;;;;21.10;55.30;;;;;;5034528;28;1139;-71
2021/04/19 14:14:39;;;;;;;;;;;21.00;55.30;;;;;;5036081;28;1957;-70
2021/04/19 14:17:05;;;;;;;;;;;21.10;55.40;;;;;;5033951;28;1432;-70
2021/04/19 14:19:30;;;;;;;;;;;21.10;55.40;;;;;;5033002;28;997;-71
2021/04/19 14:21:56;;;;;;;;;;;21.00;55.40;;;;;;5033652;28;1190;-71
2021/04/19 14:24:21;;;;;;;;;;;21.00;55.40;;;;;;5025808;28;1366;-71
2021/04/19 14:26:47;;;;;;;;;;;21.00;55.40;;;;;;5034141;28;1138;-70
2021/04/19 14:29:12;;;;;;;;;;;21.00;55.50;;;;;;5032702;28;1210;-70
2021/04/19 14:31:38;;;;;;;;;;;21.00;55.50;;;;;;5034952;28;1247;-70